sensor_id;sensor_type;location;lat;lon;timestamp;P1;durP1;ratioP1;P2;durP2;ratioP2
23754;SDS011;12057;52.042;6.830;2022-08-07T00:02:08;14.03;;;5.37;;
23754;SDS011;12057;52.042;6.830;2022-08-07T00:07:09;26.27;;;7.13;;
23754;SDS011;12057;52.042;6.830;2022-08-07T00:12:10;13.13;;;5.60;;
23754;SDS011;12057;52.042;6.830;2022-08-07T00:17:10;21.93;;;5.93;;
23754;SDS011;12057;52.042;6.830;2022-08-07T00:22:11;15.10;;;5.37;;
23754;SDS011;12057;52.042;6.830;2022-08-07T00:27:12;9.37;;;4.40;;
23754;SDS011;12057;52.042;6.830;2022-08-07T00:32:13;12.93;;;6.07;;
23754;SDS011;12057;52.042;6.830;2022-08-07T00:37:14;15.17;;;5.33;;
23754;SDS011;12057;52.042;6.830;2022-08-07T00:47:16;14.10;;;5.30;;
23754;SDS011;12057;52.042;6.830;2022-08-07T00:52:17;18.37;;;7.30;;
23754;SDS011;12057;52.042;6.830;2022-08-07T00:57:18;11.73;;;6.63;;
23754;SDS011;12057;52.042;6.830;2022-08-07T01:02:20;13.80;;;6.70;;
23754;SDS011;12057;52.042;6.830;2022-08-07T01:07:23;11.00;;;5.82;;
23754;SDS011;12057;52.042;6.830;2022-08-07T01:12:23;12.40;;;5.90;;
23754;SDS011;12057;52.042;6.830;2022-08-07T01:17:24;13.50;;;6.60;;
23754;SDS011;12057;52.042;6.830;2022-08-07T01:22:25;9.98;;;5.80;;
23754;SDS011;12057;52.042;6.830;2022-08-07T01:27:26;16.63;;;6.77;;
23754;SDS011;12057;52.042;6.830;2022-08-07T01:32:27;9.70;;;5.60;;
23754;SDS011;12057;52.042;6.830;2022-08-07T01:37:29;12.63;;;6.03;;
23754;SDS011;12057;52.042;6.830;2022-08-07T01:42:29;8.53;;;5.20;;
23754;SDS011;12057;52.042;6.830;2022-08-07T01:47:30;11.33;;;5.13;;
23754;SDS011;12057;52.042;6.830;2022-08-07T01:57:33;9.85;;;5.32;;
23754;SDS011;12057;52.042;6.830;2022-08-07T02:02:54;15.07;;;6.00;;
23754;SDS011;12057;52.042;6.830;2022-08-07T02:08:00;11.75;;;5.55;;
23754;SDS011;12057;52.042;6.830;2022-08-07T02:13:04;12.27;;;6.30;;
23754;SDS011;12057;52.042;6.830;2022-08-07T02:18:08;11.20;;;5.38;;
23754;SDS011;12057;52.042;6.830;2022-08-07T02:23:11;12.15;;;5.60;;
23754;SDS011;12057;52.042;6.830;2022-08-07T02:28:13;15.77;;;5.50;;
23754;SDS011;12057;52.042;6.830;2022-08-07T02:33:15;11.40;;;5.22;;
23754;SDS011;12057;52.042;6.830;2022-08-07T02:38:18;11.70;;;6.63;;
23754;SDS011;12057;52.042;6.830;2022-08-07T02:43:24;14.07;;;5.95;;
23754;SDS011;12057;52.042;6.830;2022-08-07T02:48:26;11.07;;;4.93;;
23754;SDS011;12057;52.042;6.830;2022-08-07T02:53:30;8.17;;;4.80;;
23754;SDS011;12057;52.042;6.830;2022-08-07T02:58:33;10.05;;;5.38;;
23754;SDS011;12057;52.042;6.830;2022-08-07T03:03:36;15.43;;;6.22;;
23754;SDS011;12057;52.042;6.830;2022-08-07T03:08:37;16.20;;;5.72;;
23754;SDS011;12057;52.042;6.830;2022-08-07T03:13:38;16.65;;;7.00;;
23754;SDS011;12057;52.042;6.830;2022-08-07T03:23:42;13.73;;;6.15;;
23754;SDS011;12057;52.042;6.830;2022-08-07T03:28:45;18.70;;;6.10;;
23754;SDS011;12057;52.042;6.830;2022-08-07T03:33:48;8.88;;;5.13;;
23754;SDS011;12057;52.042;6.830;2022-08-07T03:38:54;13.32;;;5.85;;
23754;SDS011;12057;52.042;6.830;2022-08-07T03:43:58;16.50;;;5.80;;
23754;SDS011;12057;52.042;6.830;2022-08-07T03:49:00;11.73;;;5.95;;
23754;SDS011;12057;52.042;6.830;2022-08-07T03:54:01;11.90;;;6.20;;
23754;SDS011;12057;52.042;6.830;2022-08-07T03:59:03;19.35;;;6.75;;
23754;SDS011;12057;52.042;6.830;2022-08-07T04:04:05;16.67;;;6.13;;
23754;SDS011;12057;52.042;6.830;2022-08-07T04:09:06;14.67;;;6.50;;
23754;SDS011;12057;52.042;6.830;2022-08-07T04:14:06;11.17;;;5.80;;
23754;SDS011;12057;52.042;6.830;2022-08-07T04:19:08;11.52;;;6.07;;
23754;SDS011;12057;52.042;6.830;2022-08-07T04:24:09;12.47;;;5.67;;
23754;SDS011;12057;52.042;6.830;2022-08-07T04:29:11;10.82;;;5.88;;
23754;SDS011;12057;52.042;6.830;2022-08-07T04:34:12;11.80;;;6.50;;
23754;SDS011;12057;52.042;6.830;2022-08-07T04:39:14;12.65;;;6.53;;
23754;SDS011;12057;52.042;6.830;2022-08-07T04:44:15;13.10;;;6.70;;
23754;SDS011;12057;52.042;6.830;2022-08-07T04:54:39;22.20;;;7.45;;
23754;SDS011;12057;52.042;6.830;2022-08-07T04:59:52;17.75;;;8.48;;
23754;SDS011;12057;52.042;6.830;2022-08-07T05:05:34;15.00;;;7.10;;
23754;SDS011;12057;52.042;6.830;2022-08-07T05:10:42;21.45;;;7.95;;
23754;SDS011;12057;52.042;6.830;2022-08-07T05:15:48;20.50;;;8.95;;
23754;SDS011;12057;52.042;6.830;2022-08-07T05:20:52;21.80;;;8.65;;
23754;SDS011;12057;52.042;6.830;2022-08-07T05:25:56;19.52;;;9.07;;
23754;SDS011;12057;52.042;6.830;2022-08-07T05:30:59;16.90;;;8.27;;
23754;SDS011;12057;52.042;6.830;2022-08-07T05:36:01;18.52;;;8.80;;
23754;SDS011;12057;52.042;6.830;2022-08-07T05:41:03;26.25;;;10.40;;
23754;SDS011;12057;52.042;6.830;2022-08-07T05:46:04;28.88;;;10.73;;
23754;SDS011;12057;52.042;6.830;2022-08-07T05:51:05;25.37;;;11.87;;
23754;SDS011;12057;52.042;6.830;2022-08-07T05:56:07;17.92;;;9.90;;
23754;SDS011;12057;52.042;6.830;2022-08-07T06:06:10;30.38;;;12.50;;
23754;SDS011;12057;52.042;6.830;2022-08-07T06:11:11;26.43;;;11.70;;
23754;SDS011;12057;52.042;6.830;2022-08-07T06:16:13;18.35;;;10.30;;
23754;SDS011;12057;52.042;6.830;2022-08-07T06:21:15;24.40;;;11.48;;
23754;SDS011;12057;52.042;6.830;2022-08-07T06:26:17;25.38;;;10.55;;
23754;SDS011;12057;52.042;6.830;2022-08-07T06:31:18;19.40;;;11.37;;
23754;SDS011;12057;52.042;6.830;2022-08-07T06:36:19;20.80;;;10.35;;
23754;SDS011;12057;52.042;6.830;2022-08-07T06:46:42;19.33;;;9.75;;
23754;SDS011;12057;52.042;6.830;2022-08-07T06:51:43;18.57;;;10.03;;
23754;SDS011;12057;52.042;6.830;2022-08-07T06:56:46;23.58;;;10.27;;
23754;SDS011;12057;52.042;6.830;2022-08-07T07:01:49;15.55;;;8.80;;
23754;SDS011;12057;52.042;6.830;2022-08-07T07:17:09;17.42;;;7.95;;
23754;SDS011;12057;52.042;6.830;2022-08-07T07:22:46;14.18;;;6.88;;
23754;SDS011;12057;52.042;6.830;2022-08-07T07:33:29;18.52;;;6.95;;
23754;SDS011;12057;52.042;6.830;2022-08-07T07:38:32;13.38;;;6.47;;
23754;SDS011;12057;52.042;6.830;2022-08-07T07:43:33;12.87;;;5.53;;
23754;SDS011;12057;52.042;6.830;2022-08-07T07:48:38;14.90;;;5.35;;
23754;SDS011;12057;52.042;6.830;2022-08-07T07:53:41;10.93;;;5.45;;
23754;SDS011;12057;52.042;6.830;2022-08-07T07:58:44;9.98;;;4.63;;
23754;SDS011;12057;52.042;6.830;2022-08-07T08:03:45;7.88;;;4.30;;
23754;SDS011;12057;52.042;6.830;2022-08-07T08:08:48;11.43;;;4.72;;
23754;SDS011;12057;52.042;6.830;2022-08-07T08:13:51;13.65;;;4.30;;
23754;SDS011;12057;52.042;6.830;2022-08-07T08:18:53;8.50;;;3.87;;
23754;SDS011;12057;52.042;6.830;2022-08-07T08:23:55;9.40;;;4.18;;
23754;SDS011;12057;52.042;6.830;2022-08-07T08:29:15;6.88;;;3.45;;
23754;SDS011;12057;52.042;6.830;2022-08-07T08:34:17;12.43;;;2.92;;
23754;SDS011;12057;52.042;6.830;2022-08-07T08:39:19;4.07;;;2.22;;
23754;SDS011;12057;52.042;6.830;2022-08-07T08:50:08;10.68;;;2.10;;
23754;SDS011;12057;52.042;6.830;2022-08-07T09:00:25;8.38;;;1.67;;
23754;SDS011;12057;52.042;6.830;2022-08-07T09:10:41;5.57;;;1.63;;
23754;SDS011;12057;52.042;6.830;2022-08-07T09:37:50;4.00;;;1.98;;
23754;SDS011;12057;52.042;6.830;2022-08-07T09:43:20;3.38;;;1.52;;
23754;SDS011;12057;52.042;6.830;2022-08-07T09:53:48;5.20;;;1.50;;
23754;SDS011;12057;52.042;6.830;2022-08-07T10:41:45;4.13;;;1.48;;
23754;SDS011;12057;52.042;6.830;2022-08-07T10:53:42;3.25;;;1.33;;
23754;SDS011;12057;52.042;6.830;2022-08-07T11:09:27;3.78;;;1.23;;
23754;SDS011;12057;52.042;6.830;2022-08-07T11:14:38;3.63;;;1.23;;
23754;SDS011;12057;52.042;6.830;2022-08-07T11:25:35;2.45;;;0.93;;
23754;SDS011;12057;52.042;6.830;2022-08-07T11:30:41;2.90;;;1.42;;
23754;SDS011;12057;52.042;6.830;2022-08-07T11:35:53;8.45;;;1.20;;
23754;SDS011;12057;52.042;6.830;2022-08-07T11:41:21;3.00;;;1.20;;
23754;SDS011;12057;52.042;6.830;2022-08-07T12:02:10;6.05;;;1.20;;
23754;SDS011;12057;52.042;6.830;2022-08-07T12:07:40;1.55;;;0.90;;
23754;SDS011;12057;52.042;6.830;2022-08-07T12:12:55;3.38;;;1.33;;
23754;SDS011;12057;52.042;6.830;2022-08-07T12:18:09;7.88;;;1.10;;
23754;SDS011;12057;52.042;6.830;2022-08-07T12:33:55;4.95;;;1.10;;
23754;SDS011;12057;52.042;6.830;2022-08-07T12:38:58;5.45;;;1.25;;
23754;SDS011;12057;52.042;6.830;2022-08-07T12:44:02;1.33;;;0.90;;
23754;SDS011;12057;52.042;6.830;2022-08-07T12:49:14;3.25;;;1.00;;
23754;SDS011;12057;52.042;6.830;2022-08-07T13:00:00;3.22;;;1.45;;
23754;SDS011;12057;52.042;6.830;2022-08-07T13:16:26;2.45;;;1.00;;
23754;SDS011;12057;52.042;6.830;2022-08-07T13:21:30;4.82;;;1.30;;
23754;SDS011;12057;52.042;6.830;2022-08-07T13:26:45;6.25;;;1.52;;
23754;SDS011;12057;52.042;6.830;2022-08-07T13:31:54;3.13;;;1.20;;
23754;SDS011;12057;52.042;6.830;2022-08-07T13:37:03;2.05;;;1.30;;
23754;SDS011;12057;52.042;6.830;2022-08-07T13:42:12;2.37;;;1.00;;
23754;SDS011;12057;52.042;6.830;2022-08-07T13:47:16;6.57;;;1.00;;
23754;SDS011;12057;52.042;6.830;2022-08-07T13:52:19;4.80;;;1.17;;
23754;SDS011;12057;52.042;6.830;2022-08-07T13:57:24;8.93;;;1.10;;
23754;SDS011;12057;52.042;6.830;2022-08-07T14:02:27;1.27;;;0.90;;
23754;SDS011;12057;52.042;6.830;2022-08-07T14:07:42;6.22;;;1.10;;
23754;SDS011;12057;52.042;6.830;2022-08-07T14:12:49;2.25;;;1.20;;
23754;SDS011;12057;52.042;6.830;2022-08-07T14:17:55;1.40;;;1.08;;
23754;SDS011;12057;52.042;6.830;2022-08-07T14:23:02;3.30;;;1.08;;
23754;SDS011;12057;52.042;6.830;2022-08-07T14:28:24;3.95;;;1.15;;
23754;SDS011;12057;52.042;6.830;2022-08-07T14:33:27;2.35;;;1.00;;
23754;SDS011;12057;52.042;6.830;2022-08-07T14:38:32;3.35;;;1.23;;
23754;SDS011;12057;52.042;6.830;2022-08-07T14:43:44;4.43;;;1.50;;
23754;SDS011;12057;52.042;6.830;2022-08-07T14:48:46;1.52;;;0.90;;
23754;SDS011;12057;52.042;6.830;2022-08-07T14:53:50;3.20;;;1.20;;
23754;SDS011;12057;52.042;6.830;2022-08-07T14:58:53;3.38;;;1.17;;
23754;SDS011;12057;52.042;6.830;2022-08-07T15:04:04;6.63;;;1.20;;
23754;SDS011;12057;52.042;6.830;2022-08-07T15:09:06;6.10;;;1.23;;
23754;SDS011;12057;52.042;6.830;2022-08-07T15:14:12;4.30;;;1.08;;
23754;SDS011;12057;52.042;6.830;2022-08-07T15:19:18;2.03;;;0.90;;
23754;SDS011;12057;52.042;6.830;2022-08-07T15:24:32;3.33;;;1.25;;
23754;SDS011;12057;52.042;6.830;2022-08-07T15:29:40;2.17;;;0.82;;
23754;SDS011;12057;52.042;6.830;2022-08-07T15:34:47;3.90;;;1.05;;
23754;SDS011;12057;52.042;6.830;2022-08-07T15:39:53;6.00;;;1.20;;
23754;SDS011;12057;52.042;6.830;2022-08-07T15:44:56;2.53;;;1.25;;
23754;SDS011;12057;52.042;6.830;2022-08-07T15:49:58;5.50;;;1.45;;
23754;SDS011;12057;52.042;6.830;2022-08-07T15:55:03;5.63;;;1.25;;
23754;SDS011;12057;52.042;6.830;2022-08-07T16:00:06;3.60;;;1.63;;
23754;SDS011;12057;52.042;6.830;2022-08-07T16:05:10;4.85;;;1.55;;
23754;SDS011;12057;52.042;6.830;2022-08-07T16:10:15;5.80;;;1.50;;
23754;SDS011;12057;52.042;6.830;2022-08-07T16:31:41;4.03;;;2.77;;
23754;SDS011;12057;52.042;6.830;2022-08-07T16:47:45;7.33;;;2.30;;
23754;SDS011;12057;52.042;6.830;2022-08-07T16:58:28;7.20;;;2.58;;
23754;SDS011;12057;52.042;6.830;2022-08-07T17:09:12;7.25;;;2.67;;
23754;SDS011;12057;52.042;6.830;2022-08-07T17:14:22;4.35;;;2.72;;
23754;SDS011;12057;52.042;6.830;2022-08-07T17:19:34;4.88;;;2.95;;
23754;SDS011;12057;52.042;6.830;2022-08-07T17:30:17;3.67;;;2.50;;
23754;SDS011;12057;52.042;6.830;2022-08-07T17:35:24;4.95;;;2.72;;
23754;SDS011;12057;52.042;6.830;2022-08-07T17:40:43;5.80;;;2.38;;
23754;SDS011;12057;52.042;6.830;2022-08-07T17:45:57;4.00;;;2.38;;
23754;SDS011;12057;52.042;6.830;2022-08-07T17:51:14;3.38;;;2.47;;
23754;SDS011;12057;52.042;6.830;2022-08-07T17:56:25;5.40;;;2.15;;
23754;SDS011;12057;52.042;6.830;2022-08-07T18:06:50;2.80;;;1.98;;
23754;SDS011;12057;52.042;6.830;2022-08-07T18:12:03;4.30;;;2.05;;
23754;SDS011;12057;52.042;6.830;2022-08-07T18:23:08;2.80;;;1.90;;
23754;SDS011;12057;52.042;6.830;2022-08-07T18:28:26;5.68;;;1.88;;
23754;SDS011;12057;52.042;6.830;2022-08-07T18:44:34;5.47;;;1.95;;
23754;SDS011;12057;52.042;6.830;2022-08-07T19:00:44;3.47;;;2.20;;
23754;SDS011;12057;52.042;6.830;2022-08-07T19:06:08;4.18;;;1.80;;
23754;SDS011;12057;52.042;6.830;2022-08-07T19:11:15;2.97;;;2.00;;
23754;SDS011;12057;52.042;6.830;2022-08-07T19:21:46;3.65;;;1.98;;
23754;SDS011;12057;52.042;6.830;2022-08-07T19:26:54;4.00;;;2.10;;
23754;SDS011;12057;52.042;6.830;2022-08-07T19:31:57;2.95;;;1.80;;
23754;SDS011;12057;52.042;6.830;2022-08-07T19:37:18;6.30;;;2.30;;
23754;SDS011;12057;52.042;6.830;2022-08-07T19:42:41;7.57;;;2.35;;
23754;SDS011;12057;52.042;6.830;2022-08-07T19:48:03;3.85;;;2.28;;
23754;SDS011;12057;52.042;6.830;2022-08-07T19:53:47;4.45;;;2.30;;
23754;SDS011;12057;52.042;6.830;2022-08-07T19:58:53;5.70;;;2.30;;
23754;SDS011;12057;52.042;6.830;2022-08-07T20:03:56;10.75;;;2.63;;
23754;SDS011;12057;52.042;6.830;2022-08-07T20:08:57;6.00;;;2.13;;
23754;SDS011;12057;52.042;6.830;2022-08-07T20:14:00;5.47;;;2.58;;
23754;SDS011;12057;52.042;6.830;2022-08-07T20:19:06;3.58;;;2.00;;
23754;SDS011;12057;52.042;6.830;2022-08-07T20:24:19;6.22;;;2.40;;
23754;SDS011;12057;52.042;6.830;2022-08-07T20:29:26;4.93;;;2.15;;
23754;SDS011;12057;52.042;6.830;2022-08-07T20:34:31;3.30;;;2.13;;
23754;SDS011;12057;52.042;6.830;2022-08-07T20:39:35;6.75;;;2.85;;
23754;SDS011;12057;52.042;6.830;2022-08-07T20:44:39;7.05;;;1.83;;
23754;SDS011;12057;52.042;6.830;2022-08-07T20:49:42;4.55;;;1.90;;
23754;SDS011;12057;52.042;6.830;2022-08-07T20:54:47;8.35;;;2.13;;
23754;SDS011;12057;52.042;6.830;2022-08-07T20:59:49;5.20;;;2.20;;
23754;SDS011;12057;52.042;6.830;2022-08-07T21:04:51;3.88;;;2.08;;
23754;SDS011;12057;52.042;6.830;2022-08-07T21:09:52;5.70;;;2.40;;
23754;SDS011;12057;52.042;6.830;2022-08-07T21:14:54;7.18;;;2.60;;
23754;SDS011;12057;52.042;6.830;2022-08-07T21:19:57;7.50;;;2.55;;
23754;SDS011;12057;52.042;6.830;2022-08-07T21:35:56;2.60;;;1.92;;
23754;SDS011;12057;52.042;6.830;2022-08-07T21:56:49;6.50;;;2.40;;
23754;SDS011;12057;52.042;6.830;2022-08-07T22:01:55;6.88;;;2.83;;
23754;SDS011;12057;52.042;6.830;2022-08-07T22:07:30;9.05;;;2.88;;
23754;SDS011;12057;52.042;6.830;2022-08-07T22:12:46;9.60;;;3.60;;
23754;SDS011;12057;52.042;6.830;2022-08-07T22:29:22;10.57;;;3.33;;
23754;SDS011;12057;52.042;6.830;2022-08-07T22:44:51;5.70;;;3.45;;
23754;SDS011;12057;52.042;6.830;2022-08-07T22:50:02;12.43;;;4.07;;
23754;SDS011;12057;52.042;6.830;2022-08-07T23:17:13;10.45;;;4.53;;
23754;SDS011;12057;52.042;6.830;2022-08-07T23:38:10;12.77;;;5.45;;
23754;SDS011;12057;52.042;6.830;2022-08-07T23:54:23;12.30;;;5.53;;
23754;SDS011;12057;52.042;6.830;2022-08-07T23:59:14;17.00;;;6.15;;
